Time;durP1;ratioP1;P1;durP2;ratioP2;P2;SDS_P1;SDS_P2;PMS_P1;PMS_P2;Temp;Humidity;BMP_temperature;BMP_pressure;BME280_temperature;BME280_humidity;BME280_pressure;Samples;Min_cycle;Max_cycle;Signal;HPM_P1;HPM_P2
2023/02/25 00:00:42;;;;;;;;;;;;;;;16.07;70.92;100214.47;7405672;19;1092;-79
2023/02/25 00:03:11;;;;;;;;;;;;;;;16.11;70.94;100226.56;7405381;19;1053;-79
2023/02/25 00:05:40;;;;;;;;;;;;;;;16.09;71.26;100223.19;7402952;19;1374;-79
2023/02/25 00:08:08;;;;;;;;;;;;;;;16.10;71.19;100219.56;7402787;19;1493;-79
2023/02/25 00:10:36;;;;;;;;;;;;;;;16.09;71.20;100220.53;7402855;19;1429;-79
2023/02/25 00:13:06;;;;;;;;;;;;;;;16.06;70.81;100207.47;7405337;19;1079;-79
2023/02/25 00:15:34;;;;;;;;;;;;;;;16.07;71.02;100220.66;7402742;19;1384;-79
2023/02/25 00:18:05;;;;;;;;;;;;;;;16.04;71.32;100210.25;7405035;19;996;-79
2023/02/25 00:20:33;;;;;;;;;;;;;;;16.05;70.96;100200.44;7406874;19;1091;-79
2023/02/25 00:23:01;;;;;;;;;;;;;;;16.02;71.18;100211.38;7406184;19;1004;-79
2023/02/25 00:25:29;;;;;;;;;;;;;;;16.03;70.95;100207.72;7404499;19;1088;-79
2023/02/25 00:27:58;;;;;;;;;;;;;;;16.03;71.16;100181.03;7402300;19;1811;-79
2023/02/25 00:30:27;;;;;;;;;;;;;;;16.03;71.07;100197.88;7404989;19;1063;-79
2023/02/25 00:32:55;;;;;;;;;;;;;;;16.03;71.16;100192.53;7404413;19;1092;-79
2023/02/25 00:35:26;;;;;;;;;;;;;;;16.01;70.89;100180.31;7402023;19;1481;-79
2023/02/25 00:37:54;;;;;;;;;;;;;;;16.01;70.84;100175.81;7404692;19;1400;-79
2023/02/25 00:40:22;;;;;;;;;;;;;;;15.99;71.08;100180.44;7403009;19;948;-79
2023/02/25 00:42:51;;;;;;;;;;;;;;;15.98;70.91;100169.94;7404339;19;1078;-79
2023/02/25 00:45:19;;;;;;;;;;;;;;;15.97;70.98;100168.22;7403744;19;1004;-79
2023/02/25 00:47:47;;;;;;;;;;;;;;;15.97;71.09;100176.22;7402398;19;1835;-79
2023/02/25 00:50:16;;;;;;;;;;;;;;;15.96;71.08;100158.56;7403833;19;1008;-79
2023/02/25 00:52:47;;;;;;;;;;;;;;;15.95;70.72;100162.19;7402817;19;1310;-79
2023/02/25 00:55:15;;;;;;;;;;;;;;;15.94;70.77;100150.69;7401657;19;1395;-79
2023/02/25 00:57:44;;;;;;;;;;;;;;;15.99;70.89;100163.63;7403217;19;1076;-79
2023/02/25 01:00:15;;;;;;;;;;;;;;;15.96;71.13;100159.41;7403845;19;1050;-79
2023/02/25 01:02:44;;;;;;;;;;;;;;;15.99;71.03;100151.13;7403692;19;1048;-79
2023/02/25 01:05:12;;;;;;;;;;;;;;;15.99;70.54;100139.59;7404369;19;1033;-79
2023/02/25 01:07:40;;;;;;;;;;;;;;;16.00;70.39;100138.66;7401819;19;1848;-79
2023/02/25 01:10:12;;;;;;;;;;;;;;;16.00;70.46;100111.97;7403249;19;1009;-79
2023/02/25 01:12:40;;;;;;;;;;;;;;;15.98;70.61;100113.94;7403185;19;1084;-79
2023/02/25 01:15:09;;;;;;;;;;;;;;;15.98;70.89;100114.78;7401231;19;1473;-79
2023/02/25 01:17:37;;;;;;;;;;;;;;;15.98;70.83;100116.59;7403409;19;1055;-79
2023/02/25 01:20:11;;;;;;;;;;;;;;;15.97;70.98;100122.91;7403304;19;1005;-79
2023/02/25 01:22:40;;;;;;;;;;;;;;;15.96;70.74;100123.88;7403657;19;1037;-79
2023/02/25 01:25:12;;;;;;;;;;;;;;;15.96;70.73;100115.88;7403062;19;947;-79
2023/02/25 01:27:41;;;;;;;;;;;;;;;15.94;70.72;100112.50;7398781;19;1848;-79
2023/02/25 01:30:10;;;;;;;;;;;;;;;15.94;70.62;100112.50;7401705;19;1141;-79
2023/02/25 01:32:38;;;;;;;;;;;;;;;15.94;70.95;100131.19;7402261;19;1079;-79
2023/02/25 01:35:07;;;;;;;;;;;;;;;15.90;70.48;100134.09;7400561;19;1481;-79
2023/02/25 01:37:35;;;;;;;;;;;;;;;15.94;70.60;100137.34;7400843;19;1472;-79
2023/02/25 01:40:03;;;;;;;;;;;;;;;15.90;70.78;100127.91;7400211;19;1494;-79
2023/02/25 01:42:34;;;;;;;;;;;;;;;15.90;70.77;100127.91;7400367;19;1382;-79
2023/02/25 01:45:23;;;;;;;;;;;;;;;15.86;70.70;100122.00;7402194;19;1019;-79
2023/02/25 01:47:53;;;;;;;;;;;;;;;15.89;70.39;100129.72;7400202;19;1847;-79
2023/02/25 01:50:24;;;;;;;;;;;;;;;15.94;70.52;100129.34;7401895;19;1123;-79
2023/02/25 01:52:52;;;;;;;;;;;;;;;15.92;70.37;100136.63;7401023;19;1162;-79
2023/02/25 01:55:21;;;;;;;;;;;;;;;15.86;70.60;100116.66;7401373;19;1020;-79
2023/02/25 01:57:51;;;;;;;;;;;;;;;15.87;70.36;100118.34;7401127;19;1034;-79
2023/02/25 02:00:20;;;;;;;;;;;;;;;15.89;70.38;100127.06;7402137;19;1091;-79
2023/02/25 02:02:50;;;;;;;;;;;;;;;15.89;70.74;100121.72;7402074;19;1107;-79
2023/02/25 02:05:19;;;;;;;;;;;;;;;15.89;70.82;100113.72;7401596;19;1028;-79
2023/02/25 02:07:48;;;;;;;;;;;;;;;15.87;70.29;100110.34;7400134;19;1854;-79
2023/02/25 02:10:18;;;;;;;;;;;;;;;15.87;70.54;100106.84;7401635;19;974;-79
2023/02/25 02:12:48;;;;;;;;;;;;;;;15.92;70.14;100115.31;7402101;19;1067;-79
2023/02/25 02:15:19;;;;;;;;;;;;;;;15.91;70.08;100102.94;7401143;19;1095;-78
2023/02/25 02:17:51;;;;;;;;;;;;;;;15.88;70.37;100117.38;7401260;19;1043;-79
2023/02/25 02:20:22;;;;;;;;;;;;;;;15.90;69.92;100094.09;7400498;19;1091;-79
2023/02/25 02:22:56;;;;;;;;;;;;;;;15.90;69.86;100110.09;7400964;19;1021;-79
2023/02/25 02:25:39;;;;;;;;;;;;;;;15.92;70.57;100107.31;7401871;19;1009;-79
2023/02/25 02:28:17;;;;;;;;;;;;;;;15.86;70.38;100110.50;7398978;19;1849;-79
2023/02/25 02:30:52;;;;;;;;;;;;;;;15.80;70.39;100101.19;7400299;19;1063;-79
2023/02/25 02:33:28;;;;;;;;;;;;;;;15.82;70.52;100099.25;7398936;19;1384;-79
2023/02/25 02:36:00;;;;;;;;;;;;;;;15.84;70.32;100105.28;7399322;19;1401;-79
2023/02/25 02:38:34;;;;;;;;;;;;;;;15.86;70.52;100110.50;7400268;19;1028;-79
2023/02/25 02:41:05;;;;;;;;;;;;;;;15.82;70.30;100093.91;7400544;19;1058;-79
2023/02/25 02:43:39;;;;;;;;;;;;;;;15.81;70.22;100100.19;7400522;19;984;-79
2023/02/25 02:46:10;;;;;;;;;;;;;;;15.83;70.15;100102.75;7400530;19;983;-79
2023/02/25 02:48:43;;;;;;;;;;;;;;;15.81;70.04;100086.03;7397523;19;1848;-79
2023/02/25 02:51:16;;;;;;;;;;;;;;;15.80;70.09;100100.34;7398964;19;1063;-79
2023/02/25 02:53:48;;;;;;;;;;;;;;;15.82;69.89;100091.25;7399568;19;1105;-79
2023/02/25 02:56:18;;;;;;;;;;;;;;;15.80;70.28;100090.53;7400124;19;1103;-79
2023/02/25 02:58:49;;;;;;;;;;;;;;;15.80;70.13;100093.19;7399633;19;1013;-79
2023/02/25 03:01:19;;;;;;;;;;;;;;;15.80;70.27;100079.88;7400154;19;1012;-79
2023/02/25 03:03:53;;;;;;;;;;;;;;;15.77;69.86;100080.13;7400273;19;925;-79
2023/02/25 03:06:23;;;;;;;;;;;;;;;15.79;69.87;100067.50;7400136;19;1067;-79
2023/02/25 03:08:55;;;;;;;;;;;;;;;15.76;69.70;100086.44;7397524;19;1854;-79
2023/02/25 03:11:24;;;;;;;;;;;;;;;15.78;69.77;100076.50;7399735;19;1071;-79
2023/02/25 03:13:52;;;;;;;;;;;;;;;15.78;69.82;100071.16;7399091;19;984;-79
2023/02/25 03:16:23;;;;;;;;;;;;;;;15.78;70.05;100081.81;7400273;19;1114;-79
2023/02/25 03:18:55;;;;;;;;;;;;;;;15.77;70.01;100088.13;7398917;19;1026;-79
2023/02/25 03:21:28;;;;;;;;;;;;;;;15.79;70.16;100077.31;7398787;19;1036;-79
2023/02/25 03:23:57;;;;;;;;;;;;;;;15.81;69.57;100076.22;7399238;19;996;-79
2023/02/25 03:26:28;;;;;;;;;;;;;;;15.78;69.54;100081.81;7399269;19;1084;-79
2023/02/25 03:28:57;;;;;;;;;;;;;;;15.77;69.74;100071.28;7397474;19;1856;-79
2023/02/25 03:31:27;;;;;;;;;;;;;;;15.80;69.57;100082.53;7398956;19;1079;-79
2023/02/25 03:34:00;;;;;;;;;;;;;;;15.78;69.90;100075.66;7398770;19;1454;-79
2023/02/25 03:36:32;;;;;;;;;;;;;;;15.79;69.71;100090.66;7397436;19;1491;-79
2023/02/25 03:39:03;;;;;;;;;;;;;;;15.81;69.41;100108.19;7398606;19;1040;-79
2023/02/25 03:41:34;;;;;;;;;;;;;;;15.79;69.44;100085.31;7397126;19;1407;-79
2023/02/25 03:44:03;;;;;;;;;;;;;;;15.76;69.88;100077.59;7399051;19;1151;-79
2023/02/25 03:46:32;;;;;;;;;;;;;;;15.74;69.96;100059.06;7398992;19;1095;-79
2023/02/25 03:49:03;;;;;;;;;;;;;;;15.73;69.55;100057.38;7396296;19;1807;-79
2023/02/25 03:51:35;;;;;;;;;;;;;;;15.71;69.89;100062.78;7400149;19;1099;-79
2023/02/25 03:54:04;;;;;;;;;;;;;;;15.71;69.52;100037.97;7402270;19;1477;-79
2023/02/25 03:56:41;;;;;;;;;;;;;;;15.75;69.39;100059.91;7405627;19;997;-79
2023/02/25 03:59:09;;;;;;;;;;;;;;;15.72;69.59;100050.31;7409612;19;1033;-79
2023/02/25 04:01:39;;;;;;;;;;;;;;;15.70;69.65;100055.78;7405422;19;1041;-79
2023/02/25 04:04:10;;;;;;;;;;;;;;;15.68;69.57;100051.56;7405301;19;1108;-79
2023/02/25 04:06:38;;;;;;;;;;;;;;;15.71;69.39;100045.97;7405368;19;1031;-79
2023/02/25 04:09:08;;;;;;;;;;;;;;;15.68;69.42;100032.91;7403611;19;1850;-79
2023/02/25 04:11:36;;;;;;;;;;;;;;;15.70;69.47;100046.94;7405808;19;1048;-79
2023/02/25 04:14:04;;;;;;;;;;;;;;;15.68;69.64;100041.75;7405119;19;1016;-79
2023/02/25 04:16:32;;;;;;;;;;;;;;;15.67;69.34;100037.38;7402638;19;1404;-79
2023/02/25 04:19:01;;;;;;;;;;;;;;;15.69;69.30;100045.25;7405210;19;969;-79
2023/02/25 04:21:34;;;;;;;;;;;;;;;15.71;69.38;100037.97;7405483;19;981;-79
2023/02/25 04:24:02;;;;;;;;;;;;;;;15.68;69.10;100033.75;7404971;19;1103;-79
2023/02/25 04:26:30;;;;;;;;;;;;;;;15.69;69.12;100031.91;7404582;19;985;-79
2023/02/25 04:28:58;;;;;;;;;;;;;;;15.69;69.13;100034.59;7402860;19;1902;-79
2023/02/25 04:31:27;;;;;;;;;;;;;;;15.71;69.33;100032.63;7404943;19;1020;-79
2023/02/25 04:33:56;;;;;;;;;;;;;;;15.68;69.14;100031.09;7403764;19;1401;-79
2023/02/25 04:36:26;;;;;;;;;;;;;;;15.65;69.49;100017.16;7402469;19;1418;-79
2023/02/25 04:38:57;;;;;;;;;;;;;;;15.65;69.47;100019.84;7405578;19;974;-79
2023/02/25 04:41:26;;;;;;;;;;;;;;;15.65;69.22;100020.66;7402265;19;1391;-79
2023/02/25 04:43:54;;;;;;;;;;;;;;;15.67;68.86;100016.06;7404238;19;996;-79
2023/02/25 04:46:22;;;;;;;;;;;;;;;15.66;69.32;100003.72;7403132;19;1063;-79
2023/02/25 04:48:50;;;;;;;;;;;;;;;15.65;69.35;100014.50;7402973;19;1839;-79
2023/02/25 04:51:19;;;;;;;;;;;;;;;15.67;69.15;99983.22;7404563;19;1012;-79
2023/02/25 04:53:48;;;;;;;;;;;;;;;15.64;69.01;99996.84;7401563;19;1421;-79
2023/02/25 04:56:19;;;;;;;;;;;;;;;15.65;69.26;99993.19;7403673;19;1017;-79
2023/02/25 04:58:47;;;;;;;;;;;;;;;15.63;69.37;99992.47;7403678;19;1036;-79
2023/02/25 05:01:16;;;;;;;;;;;;;;;15.62;69.05;99990.81;7404369;19;1008;-79
2023/02/25 05:03:44;;;;;;;;;;;;;;;15.62;69.26;99993.47;7403568;19;1131;-79
2023/02/25 05:06:12;;;;;;;;;;;;;;;15.63;68.96;100013.78;7403308;19;988;-79
2023/02/25 05:08:41;;;;;;;;;;;;;;;15.62;68.88;99994.31;7401811;19;1847;-79
2023/02/25 05:11:09;;;;;;;;;;;;;;;15.58;67.19;99989.34;7407244;19;992;-79
2023/02/25 05:13:40;;;;;;;;;;;;;;;15.58;68.00;99994.69;7402731;19;1504;-79
2023/02/25 05:16:09;;;;;;;;;;;;;;;15.56;68.48;99985.97;7403769;19;1007;-79
2023/02/25 05:18:38;;;;;;;;;;;;;;;15.59;68.62;99991.88;7399505;19;1496;-79
2023/02/25 05:21:11;;;;;;;;;;;;;;;15.57;68.68;99998.34;7401785;19;980;-79
2023/02/25 05:23:39;;;;;;;;;;;;;;;15.59;68.88;99997.22;7403411;19;946;-79
2023/02/25 05:26:07;;;;;;;;;;;;;;;15.56;68.74;99991.31;7402692;19;973;-79
2023/02/25 05:28:36;;;;;;;;;;;;;;;15.62;68.84;100006.78;7401810;19;1851;-79
2023/02/25 05:31:09;;;;;;;;;;;;;;;15.61;68.27;100005.09;7401269;19;1517;-79
2023/02/25 05:33:37;;;;;;;;;;;;;;;15.60;68.73;100014.06;7401440;19;1095;-79
2023/02/25 05:36:07;;;;;;;;;;;;;;;15.60;68.36;99998.09;7399404;19;1499;-79
2023/02/25 05:38:35;;;;;;;;;;;;;;;15.61;68.56;99997.94;7402986;19;1014;-79
2023/02/25 05:41:04;;;;;;;;;;;;;;;15.61;68.46;99994.44;7403064;19;1026;-79
2023/02/25 05:43:33;;;;;;;;;;;;;;;15.63;68.90;100011.13;7402541;19;1159;-79
2023/02/25 05:46:03;;;;;;;;;;;;;;;15.56;68.76;100001.97;7402622;19;941;-79
2023/02/25 05:48:34;;;;;;;;;;;;;;;15.55;68.86;100000.28;7400694;19;1852;-79
2023/02/25 05:51:03;;;;;;;;;;;;;;;15.55;68.56;99997.63;7402110;19;1123;-79
2023/02/25 05:53:32;;;;;;;;;;;;;;;15.57;68.73;99996.50;7400920;19;1175;-79
2023/02/25 05:56:00;;;;;;;;;;;;;;;15.54;68.63;99995.91;7402331;19;1091;-79
2023/02/25 05:58:28;;;;;;;;;;;;;;;15.56;68.58;99977.97;7401658;19;1115;-79
2023/02/25 06:00:57;;;;;;;;;;;;;;;15.57;68.68;99996.50;7401547;19;1092;-79
2023/02/25 06:03:25;;;;;;;;;;;;;;;15.59;68.44;99991.06;7400752;19;1383;-79
2023/02/25 06:05:56;;;;;;;;;;;;;;;15.59;68.55;99997.22;7400094;19;1520;-79
2023/02/25 06:08:24;;;;;;;;;;;;;;;15.59;68.34;99991.06;7400983;19;1839;-79
2023/02/25 06:10:52;;;;;;;;;;;;;;;15.59;68.28;99991.88;7401274;19;997;-79
2023/02/25 06:13:20;;;;;;;;;;;;;;;15.55;68.67;99995.78;7400786;19;1011;-79
2023/02/25 06:15:49;;;;;;;;;;;;;;;15.56;68.28;100002.81;7401642;19;1115;-79
2023/02/25 06:18:17;;;;;;;;;;;;;;;15.56;68.60;99996.63;7401448;19;1383;-79
2023/02/25 06:20:45;;;;;;;;;;;;;;;15.57;68.53;100006.31;7401693;19;1061;-79
2023/02/25 06:23:16;;;;;;;;;;;;;;;15.56;68.28;99994.84;7402256;19;1213;-79
2023/02/25 06:25:44;;;;;;;;;;;;;;;15.56;68.59;99999.28;7399038;19;1517;-79
2023/02/25 06:28:12;;;;;;;;;;;;;;;15.57;68.12;99985.84;7399339;19;1823;-80
2023/02/25 06:30:42;;;;;;;;;;;;;;;15.61;68.46;100011.25;7400265;19;1037;-79
2023/02/25 06:33:10;;;;;;;;;;;;;;;15.59;68.24;99986.56;7401092;19;1032;-79
2023/02/25 06:35:39;;;;;;;;;;;;;;;15.61;68.39;99997.09;7399199;19;1383;-79
2023/02/25 06:38:07;;;;;;;;;;;;;;;15.64;67.90;99975.53;7400471;19;1029;-79
2023/02/25 06:40:39;;;;;;;;;;;;;;;15.63;68.16;99993.31;7398801;19;1371;-79
2023/02/25 06:43:07;;;;;;;;;;;;;;;15.62;68.27;99986.31;7400502;19;1107;-79
2023/02/25 06:45:35;;;;;;;;;;;;;;;15.63;67.94;99982.66;7400972;19;1134;-79
2023/02/25 06:48:03;;;;;;;;;;;;;;;15.65;68.02;99974.53;7400310;19;1858;-79
2023/02/25 06:50:32;;;;;;;;;;;;;;;15.65;68.34;99969.19;7400659;19;1015;-79
2023/02/25 06:53:00;;;;;;;;;;;;;;;15.67;68.00;99961.91;7398588;19;1407;-79
2023/02/25 06:55:28;;;;;;;;;;;;;;;15.67;68.15;99967.25;7400290;19;1155;-79
2023/02/25 06:57:59;;;;;;;;;;;;;;;15.70;67.74;99959.81;7399837;19;1199;-79
2023/02/25 07:00:27;;;;;;;;;;;;;;;15.71;67.50;99952.66;7399712;19;1020;-79
2023/02/25 07:02:56;;;;;;;;;;;;;;;15.73;67.87;99947.25;7399808;19;1071;-79
2023/02/25 07:05:24;;;;;;;;;;;;;;;15.75;67.73;99942.63;7398268;19;1504;-79
2023/02/25 07:07:52;;;;;;;;;;;;;;;15.74;67.73;99931.13;7399201;19;1052;-80
2023/02/25 07:10:20;;;;;;;;;;;;;;;15.79;67.74;99952.03;7396690;19;1855;-80
2023/02/25 07:12:49;;;;;;;;;;;;;;;15.76;67.65;99915.00;7397642;19;1473;-80
2023/02/25 07:15:19;;;;;;;;;;;;;;;15.80;67.27;99935.06;7399763;19;949;-80
2023/02/25 07:17:48;;;;;;;;;;;;;;;15.86;67.32;99932.69;7397711;19;1383;-80
2023/02/25 07:20:16;;;;;;;;;;;;;;;15.85;67.08;99909.66;7399228;19;989;-80
2023/02/25 07:22:45;;;;;;;;;;;;;;;15.93;66.98;99913.50;7397255;19;1476;-80
2023/02/25 07:25:13;;;;;;;;;;;;;;;15.91;67.00;99909.13;7399141;19;1075;-80
2023/02/25 07:27:41;;;;;;;;;;;;;;;15.95;66.92;99901.69;7406037;19;1005;-80
2023/02/25 07:30:12;;;;;;;;;;;;;;;15.92;67.44;99896.66;7403826;19;1858;-80
2023/02/25 07:32:44;;;;;;;;;;;;;;;15.98;67.29;99906.78;7407095;19;948;-80
2023/02/25 07:35:12;;;;;;;;;;;;;;;16.01;67.22;99893.16;7405134;19;1423;-79
2023/02/25 07:37:41;;;;;;;;;;;;;;;16.03;66.92;99907.19;7406685;19;1103;-79
2023/02/25 07:40:11;;;;;;;;;;;;;;;16.04;66.76;99892.06;7405992;19;1062;-80
2023/02/25 07:42:40;;;;;;;;;;;;;;;16.04;66.73;99887.56;7405852;19;1000;-80
2023/02/25 07:45:09;;;;;;;;;;;;;;;16.05;66.76;99897.22;7406330;19;1162;-79
2023/02/25 07:47:38;;;;;;;;;;;;;;;16.09;66.97;99887.13;7406884;19;1158;-80
2023/02/25 07:50:10;;;;;;;;;;;;;;;16.15;66.80;99878.56;7404449;19;1847;-80
2023/02/25 07:52:39;;;;;;;;;;;;;;;16.09;66.61;99874.66;7402843;19;1441;-79
2023/02/25 07:55:08;;;;;;;;;;;;;;;16.09;66.68;99869.34;7405891;19;981;-79
2023/02/25 07:57:37;;;;;;;;;;;;;;;16.06;66.69;99866.09;7405585;19;982;-80
2023/02/25 08:00:09;;;;;;;;;;;;;;;16.05;66.59;99843.06;7405180;19;1048;-80
2023/02/25 08:02:37;;;;;;;;;;;;;;;16.03;67.02;99845.84;7405781;19;980;-80
2023/02/25 08:05:05;;;;;;;;;;;;;;;16.06;66.71;99844.75;7404984;19;1009;-80
2023/02/25 08:07:36;;;;;;;;;;;;;;;16.12;66.66;99848.69;7405582;19;1117;-79
2023/02/25 08:10:05;;;;;;;;;;;;;;;16.11;66.95;99847.84;7403334;19;1840;-79
2023/02/25 08:12:33;;;;;;;;;;;;;;;16.11;66.92;99850.50;7405014;19;1080;-80
2023/02/25 08:15:01;;;;;;;;;;;;;;;16.13;66.79;99845.88;7405374;19;961;-80
2023/02/25 08:17:31;;;;;;;;;;;;;;;16.16;66.62;99840.28;7405795;19;1023;-80
2023/02/25 08:19:59;;;;;;;;;;;;;;;16.19;66.44;99839.97;7405545;19;1108;-80
2023/02/25 08:22:28;;;;;;;;;;;;;;;16.14;66.50;99834.22;7402429;19;1376;-80
2023/02/25 08:24:58;;;;;;;;;;;;;;;16.22;66.43;99833.53;7404631;19;1218;-80
2023/02/25 08:27:27;;;;;;;;;;;;;;;16.19;66.24;99831.13;7404528;19;1040;-80
2023/02/25 08:29:55;;;;;;;;;;;;;;;16.19;66.60;99815.13;7403887;19;1878;-80
2023/02/25 08:32:26;;;;;;;;;;;;;;;16.20;66.66;99819.50;7402718;19;1510;-80
2023/02/25 08:34:55;;;;;;;;;;;;;;;16.25;66.31;99810.09;7401967;19;1424;-79
2023/02/25 08:37:24;;;;;;;;;;;;;;;16.23;66.11;99811.19;7404380;19;959;-80
2023/02/25 08:39:55;;;;;;;;;;;;;;;16.29;66.31;99811.50;7404810;19;1132;-79
2023/02/25 08:42:26;;;;;;;;;;;;;;;16.29;66.48;99806.16;7404844;19;983;-79
2023/02/25 08:44:54;;;;;;;;;;;;;;;16.30;66.20;99813.16;7404191;19;1002;-80
2023/02/25 08:47:23;;;;;;;;;;;;;;;16.34;66.29;99789.72;7404039;19;992;-80
2023/02/25 08:49:51;;;;;;;;;;;;;;;16.36;65.90;99802.94;7401472;19;1858;-80
2023/02/25 08:52:19;;;;;;;;;;;;;;;16.38;66.25;99811.63;7403591;19;951;-80
2023/02/25 08:54:47;;;;;;;;;;;;;;;16.41;66.31;99803.31;7403491;19;1033;-80
2023/02/25 08:57:15;;;;;;;;;;;;;;;16.39;66.25;99789.28;7403606;19;1180;-80
2023/02/25 08:59:47;;;;;;;;;;;;;;;16.42;65.96;99797.03;7404389;19;1028;-80
2023/02/25 09:02:16;;;;;;;;;;;;;;;16.43;66.02;99793.34;7404070;19;1151;-79
2023/02/25 09:04:44;;;;;;;;;;;;;;;16.39;65.79;99786.63;7403593;19;979;-80
2023/02/25 09:07:13;;;;;;;;;;;;;;;16.43;66.04;99798.69;7403262;19;1013;-80
2023/02/25 09:09:43;;;;;;;;;;;;;;;16.43;66.02;99782.69;7402343;19;1854;-80
2023/02/25 09:12:11;;;;;;;;;;;;;;;16.45;65.79;99792.25;7403376;19;1041;-80
2023/02/25 09:14:40;;;;;;;;;;;;;;;16.43;66.11;99783.53;7403710;19;992;-80
2023/02/25 09:17:10;;;;;;;;;;;;;;;16.45;65.91;99780.72;7402930;19;1033;-80
2023/02/25 09:19:40;;;;;;;;;;;;;;;16.47;66.09;99784.94;7402873;19;1012;-79
2023/02/25 09:22:08;;;;;;;;;;;;;;;16.41;66.15;99768.63;7400935;19;1380;-79
2023/02/25 09:24:37;;;;;;;;;;;;;;;16.44;66.00;99763.03;7403937;19;1031;-80
2023/02/25 09:27:06;;;;;;;;;;;;;;;16.42;66.06;99754.31;7401032;19;1460;-80
2023/02/25 09:29:35;;;;;;;;;;;;;;;16.45;65.87;99770.03;7402370;19;1847;-80
2023/02/25 09:32:04;;;;;;;;;;;;;;;16.39;66.12;99751.94;7402452;19;1092;-80
2023/02/25 09:34:35;;;;;;;;;;;;;;;16.37;66.29;99751.22;7402240;19;1397;-80
2023/02/25 09:37:05;;;;;;;;;;;;;;;16.36;66.22;99744.22;7401409;19;1044;-79
2023/02/25 09:39:33;;;;;;;;;;;;;;;16.36;66.21;99747.72;7402178;19;979;-79
2023/02/25 09:42:03;;;;;;;;;;;;;;;16.27;66.14;99757.44;7401941;19;1124;-79
2023/02/25 09:44:32;;;;;;;;;;;;;;;16.24;66.45;99754.22;7402772;19;1107;-80
2023/02/25 09:47:04;;;;;;;;;;;;;;;16.23;66.40;99749.84;7402609;19;1046;-80
2023/02/25 09:49:40;;;;;;;;;;;;;;;16.22;66.29;99750.84;7397982;19;1841;-80
2023/02/25 09:52:13;;;;;;;;;;;;;;;16.19;66.64;99743.13;7401249;19;1084;-80
2023/02/25 09:54:44;;;;;;;;;;;;;;;16.20;66.46;99734.97;7401957;19;934;-79
2023/02/25 09:57:14;;;;;;;;;;;;;;;16.22;66.48;99743.69;7401409;19;1017;-80
2023/02/25 09:59:42;;;;;;;;;;;;;;;16.20;66.63;99737.63;7402049;19;1042;-80
2023/02/25 10:02:21;;;;;;;;;;;;;;;16.18;66.61;99747.63;7401731;19;1072;-79
2023/02/25 10:04:57;;;;;;;;;;;;;;;16.16;66.51;99728.25;7401344;19;1012;-79
2023/02/25 10:07:28;;;;;;;;;;;;;;;16.16;66.69;99730.06;7401520;19;1095;-79
2023/02/25 10:10:00;;;;;;;;;;;;;;;16.16;66.55;99733.56;7400829;19;1830;-79
2023/02/25 10:12:33;;;;;;;;;;;;;;;16.13;66.70;99717.84;7401246;19;1024;-79
2023/02/25 10:15:22;;;;;;;;;;;;;;;16.16;66.67;99712.25;7402060;19;1082;-79
2023/02/25 10:18:02;;;;;;;;;;;;;;;16.09;66.56;99725.31;7401059;19;1016;-79
2023/02/25 10:20:49;;;;;;;;;;;;;;;16.08;66.71;99725.44;7401395;19;1008;-79
2023/02/25 10:23:24;;;;;;;;;;;;;;;16.04;66.83;99732.06;7401400;19;1126;-79
2023/02/25 10:25:55;;;;;;;;;;;;;;;16.05;66.74;99726.56;7400592;19;1115;-79
2023/02/25 10:28:25;;;;;;;;;;;;;;;16.05;67.06;99712.38;7402020;19;918;-79
2023/02/25 10:30:58;;;;;;;;;;;;;;;16.04;66.89;99718.72;7398850;19;1839;-79
2023/02/25 10:33:28;;;;;;;;;;;;;;;16.04;66.98;99692.88;7401192;19;1034;-79
2023/02/25 10:36:03;;;;;;;;;;;;;;;16.06;66.88;99687.41;7398848;19;1477;-79
2023/02/25 10:38:32;;;;;;;;;;;;;;;16.04;66.81;99692.88;7400715;19;996;-79
2023/02/25 10:41:00;;;;;;;;;;;;;;;16.02;66.86;99651.34;7399051;19;1482;-79
2023/02/25 10:43:29;;;;;;;;;;;;;;;16.01;66.86;99655.81;7401265;19;1052;-79
2023/02/25 10:46:01;;;;;;;;;;;;;;;16.02;66.69;99662.03;7400062;19;1082;-79
2023/02/25 10:48:30;;;;;;;;;;;;;;;16.00;66.86;99672.81;7401092;19;1009;-79
2023/02/25 10:51:11;;;;;;;;;;;;;;;16.02;67.00;99684.19;7398643;19;1859;-79
2023/02/25 10:53:40;;;;;;;;;;;;;;;16.02;66.96;99675.34;7399214;19;1169;-79
2023/02/25 10:56:09;;;;;;;;;;;;;;;16.01;67.21;99673.66;7400574;19;1032;-79
2023/02/25 10:58:39;;;;;;;;;;;;;;;16.01;66.94;99666.50;7400435;19;1047;-79
2023/02/25 11:01:18;;;;;;;;;;;;;;;16.01;66.78;99665.66;7406082;19;1021;-79
2023/02/25 11:03:49;;;;;;;;;;;;;;;15.98;66.86;99649.97;7407390;19;1040;-79
2023/02/25 11:06:24;;;;;;;;;;;;;;;16.00;67.15;99637.31;7407383;19;1036;-79
2023/02/25 11:08:53;;;;;;;;;;;;;;;15.96;67.22;99628.75;7407445;19;1111;-79
2023/02/25 11:11:23;;;;;;;;;;;;;;;15.98;66.83;99624.13;7405432;19;1852;-79
2023/02/25 11:14:01;;;;;;;;;;;;;;;15.95;67.18;99627.06;7406643;19;993;-79
2023/02/25 11:16:30;;;;;;;;;;;;;;;15.94;67.38;99613.91;7406851;19;1005;-80
2023/02/25 11:19:00;;;;;;;;;;;;;;;15.94;67.12;99616.56;7407104;19;1095;-80
2023/02/25 11:21:41;;;;;;;;;;;;;;;15.93;67.00;99609.53;7407513;19;989;-80
2023/02/25 11:24:14;;;;;;;;;;;;;;;15.95;67.29;99603.06;7403917;19;1475;-79
2023/02/25 11:26:44;;;;;;;;;;;;;;;16.00;67.08;99610.66;7406521;19;1004;-79
2023/02/25 11:29:16;;;;;;;;;;;;;;;15.94;67.12;99608.56;7406475;19;1103;-79
2023/02/25 11:31:45;;;;;;;;;;;;;;;15.94;66.91;99600.56;7404852;19;1895;-79
2023/02/25 11:34:20;;;;;;;;;;;;;;;15.91;67.31;99591.00;7405487;19;1389;-79
2023/02/25 11:36:51;;;;;;;;;;;;;;;15.90;67.20;99610.69;7404140;19;1411;-79
2023/02/25 11:39:21;;;;;;;;;;;;;;;15.89;67.47;99608.97;7406136;19;1076;-79
2023/02/25 11:41:50;;;;;;;;;;;;;;;15.88;67.23;99605.47;7407239;19;1047;-79
2023/02/25 11:44:21;;;;;;;;;;;;;;;15.90;67.41;99611.50;7407269;19;1215;-79
2023/02/25 11:46:53;;;;;;;;;;;;;;;15.90;67.43;99611.50;7405881;19;1150;-79
2023/02/25 11:49:28;;;;;;;;;;;;;;;15.87;67.35;99617.13;7403941;19;1493;-79
2023/02/25 11:52:06;;;;;;;;;;;;;;;15.85;67.23;99615.59;7403270;19;1837;-80
2023/02/25 11:54:36;;;;;;;;;;;;;;;15.87;67.38;99613.63;7403436;19;1342;-80
2023/02/25 11:57:10;;;;;;;;;;;;;;;15.89;67.15;99604.47;7406261;19;985;-80
2023/02/25 11:59:39;;;;;;;;;;;;;;;15.93;67.38;99628.22;7406027;19;984;-80
2023/02/25 12:02:32;;;;;;;;;;;;;;;15.95;67.01;99618.25;7405302;19;1403;-80
2023/02/25 12:05:12;;;;;;;;;;;;;;;15.98;66.70;99607.28;7404563;19;1152;-80
2023/02/25 12:07:52;;;;;;;;;;;;;;;15.95;67.12;99596.91;7405400;19;984;-80
2023/02/25 12:10:38;;;;;;;;;;;;;;;15.90;67.26;99592.84;7405159;19;1858;-80
2023/02/25 12:13:22;;;;;;;;;;;;;;;15.91;67.10;99607.84;7399727;19;1401;-80
2023/02/25 12:16:10;;;;;;;;;;;;;;;15.89;66.97;99596.47;7405624;19;1013;-79
2023/02/25 12:18:51;;;;;;;;;;;;;;;15.91;67.00;99599.84;7405367;19;982;-79
2023/02/25 12:21:34;;;;;;;;;;;;;;;15.85;67.06;99600.41;7402746;19;1403;-79
2023/02/25 12:24:18;;;;;;;;;;;;;;;15.85;67.17;99592.44;7404512;19;1020;-79
2023/02/25 12:26:59;;;;;;;;;;;;;;;15.86;66.98;99615.44;7402625;19;1500;-79
2023/02/25 12:29:37;;;;;;;;;;;;;;;15.89;67.12;99624.97;7404394;19;1091;-79
2023/02/25 12:32:13;;;;;;;;;;;;;;;15.84;67.09;99622.75;7402370;19;1815;-79
2023/02/25 12:34:56;;;;;;;;;;;;;;;15.83;67.48;99605.06;7403407;19;1442;-80
2023/02/25 12:37:33;;;;;;;;;;;;;;;15.83;67.00;99610.38;7404844;19;1091;-80
2023/02/25 12:40:21;;;;;;;;;;;;;;;15.84;67.21;99593.44;7402347;19;1380;-79
2023/02/25 12:42:58;;;;;;;;;;;;;;;15.85;67.18;99607.59;7403310;19;988;-79
2023/02/25 12:45:38;;;;;;;;;;;;;;;15.84;67.40;99596.09;7403931;19;1177;-79
2023/02/25 12:48:25;;;;;;;;;;;;;;;15.84;67.46;99612.09;7404180;19;984;-79
2023/02/25 12:50:59;;;;;;;;;;;;;;;15.82;67.11;99627.38;7403406;19;1849;-79
2023/02/25 12:53:32;;;;;;;;;;;;;;;15.81;67.52;99606.19;7402363;19;1172;-79
2023/02/25 12:56:15;;;;;;;;;;;;;;;15.79;67.45;99619.66;7403374;19;1005;-79
2023/02/25 12:58:58;;;;;;;;;;;;;;;15.79;67.59;99613.50;7401880;19;1383;-79
2023/02/25 13:01:38;;;;;;;;;;;;;;;15.79;67.47;99614.31;7403486;19;1084;-79
2023/02/25 13:04:24;;;;;;;;;;;;;;;15.81;67.37;99635.53;7404434;19;1082;-79
2023/02/25 13:07:01;;;;;;;;;;;;;;;15.79;67.58;99617.00;7403374;19;1024;-79
2023/02/25 13:09:40;;;;;;;;;;;;;;;15.80;67.71;99621.34;7403983;19;1005;-79
2023/02/25 13:12:19;;;;;;;;;;;;;;;15.80;67.26;99613.34;7401494;19;1866;-79
2023/02/25 13:15:02;;;;;;;;;;;;;;;15.78;67.55;99620.66;7403976;19;992;-79